sensor_id;sensor_type;location;lat;lon;timestamp;P1;durP1;ratioP1;P2;durP2;ratioP2
41829;SDS011;38614;43.472;23.936;2023-07-28T00:02:32;1.40;;;0.30;;
41829;SDS011;38614;43.472;23.936;2023-07-28T00:05:20;0.32;;;0.00;;
41829;SDS011;38614;43.472;23.936;2023-07-28T00:08:08;0.68;;;0.20;;
41829;SDS011;38614;43.472;23.936;2023-07-28T00:10:56;14.73;;;0.40;;
41829;SDS011;38614;43.472;23.936;2023-07-28T00:13:43;0.73;;;0.10;;
41829;SDS011;38614;43.472;23.936;2023-07-28T00:16:31;0.60;;;0.00;;
41829;SDS011;38614;43.472;23.936;2023-07-28T00:19:20;2.22;;;0.25;;
41829;SDS011;38614;43.472;23.936;2023-07-28T00:22:10;1.93;;;0.10;;
41829;SDS011;38614;43.472;23.936;2023-07-28T00:24:58;0.20;;;0.10;;
41829;SDS011;38614;43.472;23.936;2023-07-28T00:27:46;0.20;;;0.10;;
41829;SDS011;38614;43.472;23.936;2023-07-28T00:30:34;0.17;;;0.08;;
41829;SDS011;38614;43.472;23.936;2023-07-28T00:33:22;1.45;;;0.20;;
41829;SDS011;38614;43.472;23.936;2023-07-28T00:36:10;0.30;;;0.10;;
41829;SDS011;38614;43.472;23.936;2023-07-28T00:38:58;0.45;;;0.25;;
41829;SDS011;38614;43.472;23.936;2023-07-28T00:41:45;0.70;;;0.20;;
41829;SDS011;38614;43.472;23.936;2023-07-28T00:44:33;0.38;;;0.20;;
41829;SDS011;38614;43.472;23.936;2023-07-28T00:47:21;0.75;;;0.17;;
41829;SDS011;38614;43.472;23.936;2023-07-28T00:50:09;0.40;;;0.17;;
41829;SDS011;38614;43.472;23.936;2023-07-28T00:52:59;5.55;;;0.32;;
41829;SDS011;38614;43.472;23.936;2023-07-28T00:55:47;0.22;;;0.22;;
41829;SDS011;38614;43.472;23.936;2023-07-28T00:58:35;3.47;;;0.70;;
41829;SDS011;38614;43.472;23.936;2023-07-28T01:01:23;0.40;;;0.20;;
41829;SDS011;38614;43.472;23.936;2023-07-28T01:04:11;0.17;;;0.05;;
41829;SDS011;38614;43.472;23.936;2023-07-28T01:07:09;0.10;;;0.00;;
41829;SDS011;38614;43.472;23.936;2023-07-28T01:12:55;3.03;;;0.00;;
41829;SDS011;38614;43.472;23.936;2023-07-28T01:15:43;0.93;;;0.10;;
41829;SDS011;38614;43.472;23.936;2023-07-28T01:18:32;2.78;;;0.35;;
41829;SDS011;38614;43.472;23.936;2023-07-28T01:21:26;0.43;;;0.40;;
41829;SDS011;38614;43.472;23.936;2023-07-28T01:24:21;1.42;;;0.20;;
41829;SDS011;38614;43.472;23.936;2023-07-28T01:27:17;1.48;;;0.10;;
41829;SDS011;38614;43.472;23.936;2023-07-28T01:30:06;0.93;;;0.13;;
41829;SDS011;38614;43.472;23.936;2023-07-28T01:32:54;0.20;;;0.00;;
41829;SDS011;38614;43.472;23.936;2023-07-28T01:35:43;1.05;;;0.20;;
41829;SDS011;38614;43.472;23.936;2023-07-28T01:38:34;1.77;;;0.17;;
41829;SDS011;38614;43.472;23.936;2023-07-28T01:41:22;5.57;;;0.20;;
41829;SDS011;38614;43.472;23.936;2023-07-28T01:44:10;11.25;;;0.30;;
41829;SDS011;38614;43.472;23.936;2023-07-28T01:46:58;0.63;;;0.13;;
41829;SDS011;38614;43.472;23.936;2023-07-28T01:49:46;1.95;;;0.40;;
41829;SDS011;38614;43.472;23.936;2023-07-28T01:52:34;3.05;;;0.28;;
41829;SDS011;38614;43.472;23.936;2023-07-28T01:55:22;0.50;;;0.30;;
41829;SDS011;38614;43.472;23.936;2023-07-28T01:58:10;2.10;;;0.50;;
41829;SDS011;38614;43.472;23.936;2023-07-28T02:00:57;0.73;;;0.38;;
41829;SDS011;38614;43.472;23.936;2023-07-28T02:03:45;0.17;;;0.00;;
41829;SDS011;38614;43.472;23.936;2023-07-28T02:06:33;0.88;;;0.40;;
41829;SDS011;38614;43.472;23.936;2023-07-28T02:09:29;5.97;;;0.22;;
41829;SDS011;38614;43.472;23.936;2023-07-28T02:12:21;0.65;;;0.10;;
41829;SDS011;38614;43.472;23.936;2023-07-28T02:15:08;0.40;;;0.20;;
41829;SDS011;38614;43.472;23.936;2023-07-28T02:17:56;1.25;;;0.30;;
41829;SDS011;38614;43.472;23.936;2023-07-28T02:20:47;2.25;;;0.63;;
41829;SDS011;38614;43.472;23.936;2023-07-28T02:23:36;1.13;;;0.20;;
41829;SDS011;38614;43.472;23.936;2023-07-28T02:26:23;3.63;;;0.40;;
41829;SDS011;38614;43.472;23.936;2023-07-28T02:33:49;0.80;;;0.43;;
41829;SDS011;38614;43.472;23.936;2023-07-28T02:36:37;0.75;;;0.30;;
41829;SDS011;38614;43.472;23.936;2023-07-28T02:39:25;5.13;;;1.05;;
41829;SDS011;38614;43.472;23.936;2023-07-28T02:42:16;0.55;;;0.20;;
41829;SDS011;38614;43.472;23.936;2023-07-28T02:45:04;1.00;;;0.70;;
41829;SDS011;38614;43.472;23.936;2023-07-28T02:47:52;0.85;;;0.25;;
41829;SDS011;38614;43.472;23.936;2023-07-28T02:50:46;0.75;;;0.68;;
41829;SDS011;38614;43.472;23.936;2023-07-28T02:53:34;0.57;;;0.38;;
41829;SDS011;38614;43.472;23.936;2023-07-28T02:56:22;0.85;;;0.47;;
41829;SDS011;38614;43.472;23.936;2023-07-28T02:59:10;2.50;;;0.85;;
41829;SDS011;38614;43.472;23.936;2023-07-28T03:01:58;1.60;;;0.50;;
41829;SDS011;38614;43.472;23.936;2023-07-28T03:04:46;2.40;;;0.25;;
41829;SDS011;38614;43.472;23.936;2023-07-28T03:07:36;0.20;;;0.05;;
41829;SDS011;38614;43.472;23.936;2023-07-28T03:10:27;5.93;;;0.17;;
41829;SDS011;38614;43.472;23.936;2023-07-28T03:13:17;4.43;;;0.50;;
41829;SDS011;38614;43.472;23.936;2023-07-28T03:16:05;2.15;;;0.40;;
41829;SDS011;38614;43.472;23.936;2023-07-28T03:18:53;12.50;;;0.50;;
41829;SDS011;38614;43.472;23.936;2023-07-28T03:21:41;0.50;;;0.15;;
41829;SDS011;38614;43.472;23.936;2023-07-28T03:24:29;0.55;;;0.30;;
41829;SDS011;38614;43.472;23.936;2023-07-28T03:27:18;4.13;;;0.35;;
41829;SDS011;38614;43.472;23.936;2023-07-28T03:30:06;6.88;;;0.55;;
41829;SDS011;38614;43.472;23.936;2023-07-28T03:32:57;0.22;;;0.10;;
41829;SDS011;38614;43.472;23.936;2023-07-28T03:35:45;3.30;;;0.77;;
41829;SDS011;38614;43.472;23.936;2023-07-28T03:38:37;5.80;;;1.02;;
41829;SDS011;38614;43.472;23.936;2023-07-28T03:41:25;2.95;;;0.93;;
41829;SDS011;38614;43.472;23.936;2023-07-28T03:44:14;3.70;;;0.55;;
41829;SDS011;38614;43.472;23.936;2023-07-28T03:47:03;3.22;;;0.50;;
41829;SDS011;38614;43.472;23.936;2023-07-28T03:49:51;1.70;;;0.68;;
41829;SDS011;38614;43.472;23.936;2023-07-28T03:52:39;1.25;;;0.20;;
41829;SDS011;38614;43.472;23.936;2023-07-28T03:55:27;1.52;;;0.50;;
41829;SDS011;38614;43.472;23.936;2023-07-28T03:58:15;0.30;;;0.20;;
41829;SDS011;38614;43.472;23.936;2023-07-28T04:01:05;0.55;;;0.20;;
41829;SDS011;38614;43.472;23.936;2023-07-28T04:04:07;2.72;;;1.23;;
41829;SDS011;38614;43.472;23.936;2023-07-28T04:06:57;2.55;;;0.22;;
41829;SDS011;38614;43.472;23.936;2023-07-28T04:09:45;1.58;;;0.32;;
41829;SDS011;38614;43.472;23.936;2023-07-28T04:12:33;0.38;;;0.28;;
41829;SDS011;38614;43.472;23.936;2023-07-28T04:15:21;0.73;;;0.22;;
41829;SDS011;38614;43.472;23.936;2023-07-28T04:18:16;0.63;;;0.13;;
41829;SDS011;38614;43.472;23.936;2023-07-28T04:21:05;1.67;;;0.25;;
41829;SDS011;38614;43.472;23.936;2023-07-28T04:23:53;0.30;;;0.20;;
41829;SDS011;38614;43.472;23.936;2023-07-28T04:26:46;0.85;;;0.63;;
41829;SDS011;38614;43.472;23.936;2023-07-28T04:29:37;0.88;;;0.20;;
41829;SDS011;38614;43.472;23.936;2023-07-28T04:32:29;2.92;;;0.50;;
41829;SDS011;38614;43.472;23.936;2023-07-28T04:35:23;3.53;;;0.30;;
41829;SDS011;38614;43.472;23.936;2023-07-28T04:38:20;1.63;;;0.28;;
41829;SDS011;38614;43.472;23.936;2023-07-28T04:41:18;2.65;;;0.30;;
41829;SDS011;38614;43.472;23.936;2023-07-28T04:44:12;0.30;;;0.20;;
41829;SDS011;38614;43.472;23.936;2023-07-28T04:47:03;1.85;;;0.60;;
41829;SDS011;38614;43.472;23.936;2023-07-28T04:49:56;21.42;;;0.63;;
41829;SDS011;38614;43.472;23.936;2023-07-28T04:53:03;0.57;;;0.10;;
41829;SDS011;38614;43.472;23.936;2023-07-28T04:56:20;0.30;;;0.20;;
41829;SDS011;38614;43.472;23.936;2023-07-28T04:59:09;2.95;;;0.20;;
41829;SDS011;38614;43.472;23.936;2023-07-28T05:01:57;6.90;;;0.88;;
41829;SDS011;38614;43.472;23.936;2023-07-28T05:04:46;13.20;;;0.70;;
41829;SDS011;38614;43.472;23.936;2023-07-28T05:07:37;6.90;;;1.50;;
41829;SDS011;38614;43.472;23.936;2023-07-28T05:10:25;2.92;;;1.92;;
41829;SDS011;38614;43.472;23.936;2023-07-28T05:13:13;6.90;;;1.92;;
41829;SDS011;38614;43.472;23.936;2023-07-28T05:16:10;7.75;;;3.25;;
41829;SDS011;38614;43.472;23.936;2023-07-28T05:19:19;11.60;;;3.53;;
41829;SDS011;38614;43.472;23.936;2023-07-28T05:22:19;5.55;;;2.00;;
41829;SDS011;38614;43.472;23.936;2023-07-28T05:25:11;4.10;;;1.08;;
41829;SDS011;38614;43.472;23.936;2023-07-28T05:28:01;4.65;;;1.35;;
41829;SDS011;38614;43.472;23.936;2023-07-28T05:30:54;2.28;;;0.68;;
41829;SDS011;38614;43.472;23.936;2023-07-28T05:33:53;0.88;;;0.20;;
41829;SDS011;38614;43.472;23.936;2023-07-28T05:36:42;0.80;;;0.30;;
41829;SDS011;38614;43.472;23.936;2023-07-28T05:39:33;4.03;;;1.05;;
41829;SDS011;38614;43.472;23.936;2023-07-28T05:42:22;1.13;;;1.00;;
41829;SDS011;38614;43.472;23.936;2023-07-28T05:45:11;8.13;;;0.90;;
41829;SDS011;38614;43.472;23.936;2023-07-28T05:47:59;2.40;;;1.65;;
41829;SDS011;38614;43.472;23.936;2023-07-28T05:50:47;2.58;;;0.90;;
41829;SDS011;38614;43.472;23.936;2023-07-28T05:53:35;9.13;;;1.92;;
41829;SDS011;38614;43.472;23.936;2023-07-28T05:56:26;3.90;;;1.23;;
41829;SDS011;38614;43.472;23.936;2023-07-28T05:59:13;2.35;;;1.05;;
41829;SDS011;38614;43.472;23.936;2023-07-28T06:02:02;10.25;;;1.17;;
41829;SDS011;38614;43.472;23.936;2023-07-28T06:05:00;5.30;;;1.55;;
41829;SDS011;38614;43.472;23.936;2023-07-28T06:07:54;7.75;;;1.65;;
41829;SDS011;38614;43.472;23.936;2023-07-28T06:10:42;4.28;;;1.50;;
41829;SDS011;38614;43.472;23.936;2023-07-28T06:13:33;5.05;;;1.45;;
41829;SDS011;38614;43.472;23.936;2023-07-28T06:16:21;6.60;;;1.67;;
41829;SDS011;38614;43.472;23.936;2023-07-28T06:19:12;0.57;;;0.40;;
41829;SDS011;38614;43.472;23.936;2023-07-28T06:22:04;1.92;;;0.50;;
41829;SDS011;38614;43.472;23.936;2023-07-28T06:25:07;2.90;;;0.35;;
41829;SDS011;38614;43.472;23.936;2023-07-28T06:28:50;5.47;;;0.52;;
41829;SDS011;38614;43.472;23.936;2023-07-28T06:32:02;1.20;;;0.28;;
41829;SDS011;38614;43.472;23.936;2023-07-28T06:34:50;2.45;;;0.30;;
41829;SDS011;38614;43.472;23.936;2023-07-28T06:37:39;1.27;;;0.30;;
41829;SDS011;38614;43.472;23.936;2023-07-28T06:40:27;0.63;;;0.00;;
41829;SDS011;38614;43.472;23.936;2023-07-28T06:43:15;1.55;;;0.10;;
41829;SDS011;38614;43.472;23.936;2023-07-28T06:46:07;0.03;;;0.00;;
41829;SDS011;38614;43.472;23.936;2023-07-28T06:48:55;0.30;;;0.10;;
41829;SDS011;38614;43.472;23.936;2023-07-28T06:51:43;1.58;;;0.20;;
41829;SDS011;38614;43.472;23.936;2023-07-28T06:54:31;1.05;;;0.10;;
41829;SDS011;38614;43.472;23.936;2023-07-28T06:57:21;1.13;;;0.30;;
41829;SDS011;38614;43.472;23.936;2023-07-28T07:00:10;0.35;;;0.00;;
41829;SDS011;38614;43.472;23.936;2023-07-28T07:03:05;1.50;;;0.20;;
41829;SDS011;38614;43.472;23.936;2023-07-28T07:05:59;2.37;;;0.20;;
41829;SDS011;38614;43.472;23.936;2023-07-28T07:08:47;0.13;;;0.10;;
41829;SDS011;38614;43.472;23.936;2023-07-28T07:11:35;2.65;;;1.05;;
41829;SDS011;38614;43.472;23.936;2023-07-28T07:14:23;7.03;;;0.20;;
41829;SDS011;38614;43.472;23.936;2023-07-28T07:17:11;0.57;;;0.10;;
41829;SDS011;38614;43.472;23.936;2023-07-28T07:19:59;0.10;;;0.00;;
41829;SDS011;38614;43.472;23.936;2023-07-28T07:22:47;0.80;;;0.08;;
41829;SDS011;38614;43.472;23.936;2023-07-28T07:25:35;0.50;;;0.00;;
41829;SDS011;38614;43.472;23.936;2023-07-28T07:28:25;0.20;;;0.10;;
41829;SDS011;38614;43.472;23.936;2023-07-28T07:31:14;0.10;;;0.00;;
41829;SDS011;38614;43.472;23.936;2023-07-28T07:34:05;0.10;;;0.00;;
41829;SDS011;38614;43.472;23.936;2023-07-28T07:36:53;0.20;;;0.00;;
41829;SDS011;38614;43.472;23.936;2023-07-28T07:39:43;0.32;;;0.00;;
41829;SDS011;38614;43.472;23.936;2023-07-28T07:42:41;0.57;;;0.00;;
41829;SDS011;38614;43.472;23.936;2023-07-28T07:45:35;3.33;;;0.00;;
41829;SDS011;38614;43.472;23.936;2023-07-28T07:48:28;0.38;;;0.00;;
41829;SDS011;38614;43.472;23.936;2023-07-28T07:51:16;2.47;;;0.20;;
41829;SDS011;38614;43.472;23.936;2023-07-28T07:54:07;0.63;;;0.10;;
41829;SDS011;38614;43.472;23.936;2023-07-28T07:56:57;0.50;;;0.10;;
41829;SDS011;38614;43.472;23.936;2023-07-28T07:59:45;0.82;;;0.00;;
41829;SDS011;38614;43.472;23.936;2023-07-28T08:02:36;0.35;;;0.13;;
41829;SDS011;38614;43.472;23.936;2023-07-28T08:05:25;0.03;;;0.00;;
41829;SDS011;38614;43.472;23.936;2023-07-28T08:08:16;0.20;;;0.00;;
41829;SDS011;38614;43.472;23.936;2023-07-28T08:11:13;0.25;;;0.15;;
41829;SDS011;38614;43.472;23.936;2023-07-28T08:14:01;0.25;;;0.03;;
41829;SDS011;38614;43.472;23.936;2023-07-28T08:16:58;0.20;;;0.00;;
41829;SDS011;38614;43.472;23.936;2023-07-28T08:19:48;0.10;;;0.00;;
41829;SDS011;38614;43.472;23.936;2023-07-28T08:22:39;2.25;;;0.20;;
41829;SDS011;38614;43.472;23.936;2023-07-28T08:25:27;2.35;;;0.00;;
41829;SDS011;38614;43.472;23.936;2023-07-28T08:28:15;1.48;;;0.10;;
41829;SDS011;38614;43.472;23.936;2023-07-28T08:31:05;2.13;;;0.93;;
41829;SDS011;38614;43.472;23.936;2023-07-28T08:33:53;0.73;;;0.13;;
41829;SDS011;38614;43.472;23.936;2023-07-28T08:36:41;0.20;;;0.10;;
41829;SDS011;38614;43.472;23.936;2023-07-28T08:39:32;0.45;;;0.08;;
41829;SDS011;38614;43.472;23.936;2023-07-28T08:42:22;0.10;;;0.00;;
41829;SDS011;38614;43.472;23.936;2023-07-28T08:48:03;6.22;;;0.00;;
41829;SDS011;38614;43.472;23.936;2023-07-28T08:50:52;1.27;;;0.00;;
41829;SDS011;38614;43.472;23.936;2023-07-28T08:53:41;0.35;;;0.00;;
41829;SDS011;38614;43.472;23.936;2023-07-28T08:56:31;0.75;;;0.00;;
41829;SDS011;38614;43.472;23.936;2023-07-28T08:59:25;0.10;;;0.00;;
41829;SDS011;38614;43.472;23.936;2023-07-28T09:02:16;0.65;;;0.13;;
41829;SDS011;38614;43.472;23.936;2023-07-28T09:05:06;0.20;;;0.00;;
41829;SDS011;38614;43.472;23.936;2023-07-28T09:07:54;0.40;;;0.20;;
41829;SDS011;38614;43.472;23.936;2023-07-28T09:10:48;0.50;;;0.15;;
41829;SDS011;38614;43.472;23.936;2023-07-28T09:13:40;0.63;;;0.00;;
41829;SDS011;38614;43.472;23.936;2023-07-28T09:16:29;0.40;;;0.00;;
41829;SDS011;38614;43.472;23.936;2023-07-28T09:19:17;0.45;;;0.10;;
41829;SDS011;38614;43.472;23.936;2023-07-28T09:22:07;0.98;;;0.10;;
41829;SDS011;38614;43.472;23.936;2023-07-28T09:24:55;2.22;;;0.00;;
41829;SDS011;38614;43.472;23.936;2023-07-28T09:27:50;0.22;;;0.00;;
41829;SDS011;38614;43.472;23.936;2023-07-28T09:30:51;0.20;;;0.03;;
41829;SDS011;38614;43.472;23.936;2023-07-28T09:33:38;0.15;;;0.05;;
41829;SDS011;38614;43.472;23.936;2023-07-28T09:36:30;0.10;;;0.00;;
41829;SDS011;38614;43.472;23.936;2023-07-28T09:39:18;0.40;;;0.10;;
41829;SDS011;38614;43.472;23.936;2023-07-28T09:42:08;0.10;;;0.00;;
41829;SDS011;38614;43.472;23.936;2023-07-28T09:44:57;0.47;;;0.00;;
41829;SDS011;38614;43.472;23.936;2023-07-28T09:47:49;0.20;;;0.10;;
41829;SDS011;38614;43.472;23.936;2023-07-28T09:50:42;0.25;;;0.00;;
41829;SDS011;38614;43.472;23.936;2023-07-28T09:53:32;0.20;;;0.00;;
41829;SDS011;38614;43.472;23.936;2023-07-28T09:56:28;0.13;;;0.00;;
41829;SDS011;38614;43.472;23.936;2023-07-28T09:59:17;0.10;;;0.00;;
41829;SDS011;38614;43.472;23.936;2023-07-28T10:05:27;0.50;;;0.10;;
41829;SDS011;38614;43.472;23.936;2023-07-28T10:08:15;1.60;;;0.03;;
41829;SDS011;38614;43.472;23.936;2023-07-28T10:11:03;0.10;;;0.00;;
41829;SDS011;38614;43.472;23.936;2023-07-28T10:13:53;1.75;;;0.00;;
41829;SDS011;38614;43.472;23.936;2023-07-28T10:16:42;3.92;;;0.10;;
41829;SDS011;38614;43.472;23.936;2023-07-28T10:19:36;0.03;;;0.00;;
41829;SDS011;38614;43.472;23.936;2023-07-28T10:22:27;0.35;;;0.10;;
41829;SDS011;38614;43.472;23.936;2023-07-28T10:25:21;1.17;;;0.00;;
41829;SDS011;38614;43.472;23.936;2023-07-28T10:28:37;0.10;;;0.00;;
41829;SDS011;38614;43.472;23.936;2023-07-28T10:31:29;0.10;;;0.00;;
41829;SDS011;38614;43.472;23.936;2023-07-28T10:34:29;0.75;;;0.20;;
41829;SDS011;38614;43.472;23.936;2023-07-28T10:40:34;1.00;;;0.28;;
41829;SDS011;38614;43.472;23.936;2023-07-28T10:43:23;1.42;;;0.10;;
41829;SDS011;38614;43.472;23.936;2023-07-28T10:46:23;0.45;;;0.20;;
41829;SDS011;38614;43.472;23.936;2023-07-28T10:52:41;0.13;;;0.00;;
41829;SDS011;38614;43.472;23.936;2023-07-28T10:55:31;0.17;;;0.00;;
41829;SDS011;38614;43.472;23.936;2023-07-28T10:58:19;1.67;;;0.00;;
41829;SDS011;38614;43.472;23.936;2023-07-28T11:01:07;0.15;;;0.00;;
41829;SDS011;38614;43.472;23.936;2023-07-28T11:03:55;1.40;;;0.00;;
41829;SDS011;38614;43.472;23.936;2023-07-28T11:06:44;1.90;;;0.17;;
41829;SDS011;38614;43.472;23.936;2023-07-28T11:09:33;0.20;;;0.08;;
41829;SDS011;38614;43.472;23.936;2023-07-28T11:12:22;1.17;;;0.00;;
41829;SDS011;38614;43.472;23.936;2023-07-28T11:15:11;5.78;;;0.10;;
41829;SDS011;38614;43.472;23.936;2023-07-28T11:18:00;1.65;;;0.15;;
41829;SDS011;38614;43.472;23.936;2023-07-28T11:20:50;0.22;;;0.22;;
41829;SDS011;38614;43.472;23.936;2023-07-28T11:23:38;0.35;;;0.20;;
41829;SDS011;38614;43.472;23.936;2023-07-28T11:26:29;0.35;;;0.00;;
41829;SDS011;38614;43.472;23.936;2023-07-28T11:29:23;0.20;;;0.10;;
41829;SDS011;38614;43.472;23.936;2023-07-28T11:32:11;0.15;;;0.10;;
41829;SDS011;38614;43.472;23.936;2023-07-28T11:35:06;0.60;;;0.00;;
41829;SDS011;38614;43.472;23.936;2023-07-28T11:37:56;0.75;;;0.00;;
41829;SDS011;38614;43.472;23.936;2023-07-28T11:40:50;0.88;;;0.10;;
41829;SDS011;38614;43.472;23.936;2023-07-28T11:43:42;2.67;;;0.30;;
41829;SDS011;38614;43.472;23.936;2023-07-28T11:46:39;0.10;;;0.00;;
41829;SDS011;38614;43.472;23.936;2023-07-28T11:49:30;0.30;;;0.10;;
41829;SDS011;38614;43.472;23.936;2023-07-28T11:52:18;2.53;;;0.10;;
41829;SDS011;38614;43.472;23.936;2023-07-28T11:55:08;0.13;;;0.00;;
41829;SDS011;38614;43.472;23.936;2023-07-28T11:57:56;0.35;;;0.03;;
41829;SDS011;38614;43.472;23.936;2023-07-28T12:00:44;1.15;;;0.00;;
41829;SDS011;38614;43.472;23.936;2023-07-28T12:03:32;0.20;;;0.00;;
41829;SDS011;38614;43.472;23.936;2023-07-28T12:06:20;4.28;;;0.25;;
41829;SDS011;38614;43.472;23.936;2023-07-28T12:09:15;3.22;;;0.55;;
41829;SDS011;38614;43.472;23.936;2023-07-28T12:12:03;0.30;;;0.20;;
41829;SDS011;38614;43.472;23.936;2023-07-28T12:14:51;0.10;;;0.00;;
41829;SDS011;38614;43.472;23.936;2023-07-28T12:21:02;0.45;;;0.20;;
41829;SDS011;38614;43.472;23.936;2023-07-28T12:23:51;0.98;;;0.00;;
41829;SDS011;38614;43.472;23.936;2023-07-28T12:26:41;3.22;;;0.30;;
41829;SDS011;38614;43.472;23.936;2023-07-28T12:29:29;0.45;;;0.13;;
41829;SDS011;38614;43.472;23.936;2023-07-28T12:32:17;0.82;;;0.40;;
41829;SDS011;38614;43.472;23.936;2023-07-28T12:35:09;0.63;;;0.20;;
41829;SDS011;38614;43.472;23.936;2023-07-28T12:37:59;1.23;;;0.00;;
41829;SDS011;38614;43.472;23.936;2023-07-28T12:40:48;0.25;;;0.10;;
41829;SDS011;38614;43.472;23.936;2023-07-28T12:43:41;0.20;;;0.10;;
41829;SDS011;38614;43.472;23.936;2023-07-28T12:46:33;0.20;;;0.00;;
41829;SDS011;38614;43.472;23.936;2023-07-28T12:49:29;0.13;;;0.10;;
41829;SDS011;38614;43.472;23.936;2023-07-28T12:52:42;0.93;;;0.13;;
41829;SDS011;38614;43.472;23.936;2023-07-28T12:55:33;6.35;;;0.10;;
41829;SDS011;38614;43.472;23.936;2023-07-28T12:58:22;0.15;;;0.00;;
41829;SDS011;38614;43.472;23.936;2023-07-28T13:01:14;0.32;;;0.00;;
41829;SDS011;38614;43.472;23.936;2023-07-28T13:07:22;1.05;;;0.15;;
41829;SDS011;38614;43.472;23.936;2023-07-28T13:10:13;0.13;;;0.00;;
41829;SDS011;38614;43.472;23.936;2023-07-28T13:13:04;0.30;;;0.10;;
41829;SDS011;38614;43.472;23.936;2023-07-28T13:15:59;0.30;;;0.10;;
41829;SDS011;38614;43.472;23.936;2023-07-28T13:18:47;3.85;;;0.63;;
41829;SDS011;38614;43.472;23.936;2023-07-28T13:21:35;0.28;;;0.20;;
41829;SDS011;38614;43.472;23.936;2023-07-28T13:24:23;0.20;;;0.20;;
41829;SDS011;38614;43.472;23.936;2023-07-28T13:27:11;0.32;;;0.00;;
41829;SDS011;38614;43.472;23.936;2023-07-28T13:30:00;0.63;;;0.15;;
41829;SDS011;38614;43.472;23.936;2023-07-28T13:32:50;0.73;;;0.00;;
41829;SDS011;38614;43.472;23.936;2023-07-28T13:35:38;0.20;;;0.00;;
41829;SDS011;38614;43.472;23.936;2023-07-28T13:38:27;0.55;;;0.25;;
41829;SDS011;38614;43.472;23.936;2023-07-28T13:41:15;0.65;;;0.20;;
41829;SDS011;38614;43.472;23.936;2023-07-28T13:44:05;1.40;;;0.08;;
41829;SDS011;38614;43.472;23.936;2023-07-28T13:46:53;0.95;;;0.57;;
41829;SDS011;38614;43.472;23.936;2023-07-28T13:49:41;0.93;;;0.10;;
41829;SDS011;38614;43.472;23.936;2023-07-28T13:52:32;2.65;;;0.85;;
41829;SDS011;38614;43.472;23.936;2023-07-28T13:55:20;0.77;;;0.10;;
41829;SDS011;38614;43.472;23.936;2023-07-28T13:58:27;0.50;;;0.10;;
41829;SDS011;38614;43.472;23.936;2023-07-28T14:01:15;1.25;;;0.20;;
41829;SDS011;38614;43.472;23.936;2023-07-28T14:04:02;2.10;;;0.10;;
41829;SDS011;38614;43.472;23.936;2023-07-28T14:06:50;0.15;;;0.00;;
41829;SDS011;38614;43.472;23.936;2023-07-28T14:09:38;0.63;;;0.00;;
41829;SDS011;38614;43.472;23.936;2023-07-28T14:12:26;3.38;;;0.10;;
41829;SDS011;38614;43.472;23.936;2023-07-28T14:15:14;6.45;;;0.10;;
41829;SDS011;38614;43.472;23.936;2023-07-28T14:18:02;0.43;;;0.10;;
41829;SDS011;38614;43.472;23.936;2023-07-28T14:20:50;0.32;;;0.00;;
41829;SDS011;38614;43.472;23.936;2023-07-28T14:23:38;0.28;;;0.00;;
41829;SDS011;38614;43.472;23.936;2023-07-28T14:26:25;0.25;;;0.05;;
41829;SDS011;38614;43.472;23.936;2023-07-28T14:29:13;0.32;;;0.17;;
41829;SDS011;38614;43.472;23.936;2023-07-28T14:32:01;0.45;;;0.10;;
41829;SDS011;38614;43.472;23.936;2023-07-28T14:34:49;0.77;;;0.20;;
41829;SDS011;38614;43.472;23.936;2023-07-28T14:37:37;1.17;;;0.20;;
41829;SDS011;38614;43.472;23.936;2023-07-28T14:40:25;1.00;;;0.10;;
41829;SDS011;38614;43.472;23.936;2023-07-28T14:43:13;3.13;;;0.63;;
41829;SDS011;38614;43.472;23.936;2023-07-28T14:46:01;0.68;;;0.03;;
41829;SDS011;38614;43.472;23.936;2023-07-28T14:48:49;0.20;;;0.15;;
41829;SDS011;38614;43.472;23.936;2023-07-28T14:51:37;0.20;;;0.10;;
41829;SDS011;38614;43.472;23.936;2023-07-28T14:54:25;0.15;;;0.00;;
41829;SDS011;38614;43.472;23.936;2023-07-28T14:57:16;0.60;;;0.00;;
41829;SDS011;38614;43.472;23.936;2023-07-28T15:00:19;1.40;;;0.10;;
41829;SDS011;38614;43.472;23.936;2023-07-28T15:03:07;0.30;;;0.00;;
41829;SDS011;38614;43.472;23.936;2023-07-28T15:05:55;2.70;;;0.50;;
41829;SDS011;38614;43.472;23.936;2023-07-28T15:08:46;0.30;;;0.00;;
41829;SDS011;38614;43.472;23.936;2023-07-28T16:06:28;1.85;;;0.10;;
41829;SDS011;38614;43.472;23.936;2023-07-28T16:09:16;0.40;;;0.20;;
41829;SDS011;38614;43.472;23.936;2023-07-28T16:12:03;0.30;;;0.10;;
41829;SDS011;38614;43.472;23.936;2023-07-28T16:14:52;4.43;;;0.68;;
41829;SDS011;38614;43.472;23.936;2023-07-28T16:17:41;3.03;;;0.95;;
41829;SDS011;38614;43.472;23.936;2023-07-28T16:20:29;1.33;;;0.20;;
41829;SDS011;38614;43.472;23.936;2023-07-28T16:23:17;1.52;;;0.60;;
41829;SDS011;38614;43.472;23.936;2023-07-28T16:26:05;0.70;;;0.25;;
41829;SDS011;38614;43.472;23.936;2023-07-28T16:28:53;1.70;;;0.32;;
41829;SDS011;38614;43.472;23.936;2023-07-28T16:31:41;1.17;;;0.28;;
41829;SDS011;38614;43.472;23.936;2023-07-28T16:34:29;1.52;;;0.20;;
41829;SDS011;38614;43.472;23.936;2023-07-28T16:37:17;0.77;;;0.20;;
41829;SDS011;38614;43.472;23.936;2023-07-28T16:40:08;0.65;;;0.15;;
41829;SDS011;38614;43.472;23.936;2023-07-28T16:42:56;3.33;;;0.40;;
41829;SDS011;38614;43.472;23.936;2023-07-28T16:45:44;4.32;;;0.20;;
41829;SDS011;38614;43.472;23.936;2023-07-28T16:48:32;0.60;;;0.20;;
41829;SDS011;38614;43.472;23.936;2023-07-28T16:51:20;3.13;;;0.30;;
41829;SDS011;38614;43.472;23.936;2023-07-28T16:54:08;1.80;;;0.22;;
41829;SDS011;38614;43.472;23.936;2023-07-28T16:56:56;1.50;;;0.90;;
41829;SDS011;38614;43.472;23.936;2023-07-28T16:59:45;2.05;;;0.63;;
41829;SDS011;38614;43.472;23.936;2023-07-28T17:02:32;2.75;;;0.52;;
41829;SDS011;38614;43.472;23.936;2023-07-28T17:05:21;4.22;;;1.23;;
41829;SDS011;38614;43.472;23.936;2023-07-28T17:08:09;1.00;;;0.17;;
41829;SDS011;38614;43.472;23.936;2023-07-28T17:11:08;2.30;;;0.45;;
41829;SDS011;38614;43.472;23.936;2023-07-28T17:14:05;1.85;;;0.20;;
41829;SDS011;38614;43.472;23.936;2023-07-28T17:16:56;0.68;;;0.22;;
41829;SDS011;38614;43.472;23.936;2023-07-28T17:19:44;2.60;;;0.32;;
41829;SDS011;38614;43.472;23.936;2023-07-28T17:22:34;2.78;;;0.30;;
41829;SDS011;38614;43.472;23.936;2023-07-28T17:25:24;0.35;;;0.30;;
41829;SDS011;38614;43.472;23.936;2023-07-28T17:28:12;0.45;;;0.10;;
41829;SDS011;38614;43.472;23.936;2023-07-28T17:31:02;1.40;;;0.10;;
41829;SDS011;38614;43.472;23.936;2023-07-28T17:33:51;0.75;;;0.20;;
41829;SDS011;38614;43.472;23.936;2023-07-28T17:36:38;0.75;;;0.20;;
41829;SDS011;38614;43.472;23.936;2023-07-28T17:39:26;1.35;;;0.38;;
41829;SDS011;38614;43.472;23.936;2023-07-28T17:42:20;0.47;;;0.20;;
41829;SDS011;38614;43.472;23.936;2023-07-28T17:45:27;1.35;;;0.20;;
41829;SDS011;38614;43.472;23.936;2023-07-28T17:48:15;0.57;;;0.32;;
41829;SDS011;38614;43.472;23.936;2023-07-28T17:51:03;0.20;;;0.17;;
41829;SDS011;38614;43.472;23.936;2023-07-28T17:53:56;2.38;;;0.43;;
41829;SDS011;38614;43.472;23.936;2023-07-28T17:56:47;1.27;;;0.60;;
41829;SDS011;38614;43.472;23.936;2023-07-28T17:59:35;1.70;;;0.50;;
41829;SDS011;38614;43.472;23.936;2023-07-28T18:02:22;1.63;;;0.60;;
41829;SDS011;38614;43.472;23.936;2023-07-28T18:05:10;0.77;;;0.32;;
41829;SDS011;38614;43.472;23.936;2023-07-28T18:07:58;3.78;;;0.88;;
41829;SDS011;38614;43.472;23.936;2023-07-28T18:10:46;15.55;;;1.88;;
41829;SDS011;38614;43.472;23.936;2023-07-28T18:16:30;2.28;;;0.63;;